Terminal Aerodrome Forecast
Issued by NWS

Home | Current Version | Previous Version | Text Only | Print | Product List | Glossary On
Versions: 1 2 3 4 5 6 7
000
FTUS46 KPDT 272300
TAFYKM
TAF
KYKM 272322Z 2800/2824 28008KT P6SM SCT060
     FM280900 31004KT P6SM FEW060 SCT120
     FM281800 28004KT P6SM SCT060 BKN100=

USA.gov is the U.S. government's official web portal to all federal, state and local government web resources and services.